createdAt,value
2022-10-10T00:00:48.755Z,1.77
2022-10-10T00:03:15.612Z,3.35
2022-10-10T00:05:43.089Z,1.45
2022-10-10T00:08:09.914Z,2.00
2022-10-10T00:10:37.373Z,1.42
2022-10-10T00:15:49.988Z,1.73
2022-10-10T00:18:17.320Z,2.28
2022-10-10T00:20:43.893Z,2.70
2022-10-10T00:23:10.942Z,1.42
2022-10-10T00:25:37.873Z,3.25
2022-10-10T00:28:05.621Z,2.53
2022-10-10T00:30:32.986Z,2.58
2022-10-10T00:35:45.162Z,1.65
2022-10-10T00:38:13.168Z,2.17
2022-10-10T00:40:48.554Z,2.60
2022-10-10T00:43:16.849Z,1.92
2022-10-10T00:45:45.749Z,1.85
2022-10-10T00:48:15.252Z,1.52
2022-10-10T00:50:48.207Z,2.33
2022-10-10T00:53:18.294Z,1.60
2022-10-10T00:55:45.860Z,1.50
2022-10-10T00:58:13.526Z,2.63
2022-10-10T01:00:40.322Z,2.67
2022-10-10T01:03:07.206Z,3.22
2022-10-10T01:05:34.320Z,1.42
2022-10-10T01:08:04.201Z,2.60
2022-10-10T01:10:39.356Z,2.42
2022-10-10T01:13:18.755Z,2.35
2022-10-10T01:18:35.937Z,2.05
2022-10-10T01:21:52.365Z,4.35
2022-10-10T01:24:50.455Z,1.40
2022-10-10T01:27:17.288Z,2.75
2022-10-10T01:30:12.226Z,1.88
2022-10-10T01:32:54.227Z,2.95
2022-10-10T01:35:35.953Z,2.67
2022-10-10T01:38:28.416Z,4.80
2022-10-10T01:41:03.955Z,7.90
2022-10-10T01:43:31.297Z,2.88
2022-10-10T01:45:57.916Z,2.60
2022-10-10T01:48:31.341Z,4.47
2022-10-10T01:51:09.740Z,1.90
2022-10-10T01:53:39.066Z,2.65
2022-10-10T01:56:09.662Z,1.65
2022-10-10T01:59:09.486Z,2.28
2022-10-10T02:01:40.462Z,3.22
2022-10-10T02:04:13.528Z,2.15
2022-10-10T02:06:52.082Z,1.77
2022-10-10T02:09:28.278Z,1.50
2022-10-10T02:11:56.535Z,1.45
2022-10-10T02:14:28.946Z,3.13
2022-10-10T02:16:57.625Z,1.75
2022-10-10T02:19:25.363Z,2.63
2022-10-10T02:21:53.534Z,1.98
2022-10-10T02:24:23.867Z,1.70
2022-10-10T02:26:59.813Z,1.27
2022-10-10T02:29:34.102Z,2.30
2022-10-10T02:32:09.583Z,1.40
2022-10-10T02:34:40.374Z,2.50
2022-10-10T02:37:12.437Z,3.42
2022-10-10T02:39:50.130Z,3.08
2022-10-10T02:42:20.699Z,3.58
2022-10-10T02:47:41.339Z,1.52
2022-10-10T02:50:08.474Z,2.20
2022-10-10T02:52:35.294Z,1.50
2022-10-10T02:55:02.114Z,1.58
2022-10-10T02:57:28.926Z,1.65
2022-10-10T02:59:55.624Z,3.30
2022-10-10T03:02:22.342Z,1.52
2022-10-10T03:04:49.047Z,2.03
2022-10-10T03:07:15.861Z,4.18
2022-10-10T03:09:42.732Z,3.15
2022-10-10T03:12:09.540Z,2.00
2022-10-10T03:14:36.449Z,2.80
2022-10-10T03:17:03.145Z,1.48
2022-10-10T03:19:29.876Z,1.50
2022-10-10T03:21:56.503Z,1.40
2022-10-10T03:24:23.103Z,2.88
2022-10-10T03:26:49.697Z,1.58
2022-10-10T03:29:16.287Z,2.00
2022-10-10T03:31:43.241Z,1.33
2022-10-10T03:34:09.881Z,1.45
2022-10-10T03:36:36.605Z,1.67
2022-10-10T03:39:04.142Z,1.00
2022-10-10T03:41:31.200Z,1.73
2022-10-10T03:43:57.819Z,1.73
2022-10-10T03:46:24.438Z,1.13
2022-10-10T03:48:51.040Z,1.33
2022-10-10T03:51:17.695Z,1.95
2022-10-10T03:53:44.582Z,1.65
2022-10-10T03:56:11.998Z,1.35
2022-10-10T03:58:38.567Z,1.33
2022-10-10T04:01:05.260Z,1.10
2022-10-10T04:03:32.325Z,1.33
2022-10-10T04:05:59.021Z,1.00
2022-10-10T04:08:25.970Z,3.50
2022-10-10T04:10:53.990Z,1.15
2022-10-10T04:13:21.662Z,2.67
2022-10-10T04:15:52.156Z,1.45
2022-10-10T04:18:19.781Z,1.88
2022-10-10T04:20:46.775Z,1.50
2022-10-10T04:23:13.600Z,1.10
2022-10-10T04:25:41.811Z,2.25
2022-10-10T04:28:12.266Z,1.23
2022-10-10T04:30:39.059Z,1.45
2022-10-10T04:33:05.590Z,1.17
2022-10-10T04:35:32.379Z,1.83
2022-10-10T04:37:59.131Z,1.48
2022-10-10T04:40:26.991Z,1.48
2022-10-10T04:42:54.737Z,1.23
2022-10-10T04:45:21.697Z,1.88
2022-10-10T04:47:48.379Z,1.15
2022-10-10T04:50:15.004Z,1.70
2022-10-10T04:52:41.792Z,1.55
2022-10-10T04:55:08.618Z,1.50
2022-10-10T04:57:35.355Z,1.60
2022-10-10T05:00:02.535Z,2.67
2022-10-10T05:02:29.135Z,1.90
2022-10-10T05:04:55.981Z,2.20
2022-10-10T05:07:22.684Z,1.27
2022-10-10T05:09:49.293Z,1.10
2022-10-10T05:12:16.163Z,1.88
2022-10-10T05:14:47.817Z,1.25
2022-10-10T05:17:15.048Z,1.52
2022-10-10T05:19:41.793Z,1.55
2022-10-10T05:22:08.367Z,1.42
2022-10-10T05:24:34.990Z,1.40
2022-10-10T05:27:01.654Z,2.13
2022-10-10T05:29:28.790Z,1.00
2022-10-10T05:31:55.777Z,1.25
2022-10-10T05:34:22.648Z,1.92
2022-10-10T05:36:49.387Z,1.40
2022-10-10T05:39:15.997Z,1.55
2022-10-10T05:41:42.608Z,5.10
2022-10-10T05:44:10.175Z,2.38
2022-10-10T05:46:36.998Z,2.25
2022-10-10T05:49:03.760Z,1.52
2022-10-10T05:51:30.386Z,3.95
2022-10-10T05:53:57.531Z,4.57
2022-10-10T05:56:24.245Z,2.10
2022-10-10T05:58:51.889Z,3.75
2022-10-10T06:01:18.662Z,1.17
2022-10-10T06:03:45.373Z,1.23
2022-10-10T06:06:12.087Z,2.65
2022-10-10T06:08:38.916Z,2.30
2022-10-10T06:11:11.184Z,1.85
2022-10-10T06:13:38.982Z,1.27
2022-10-10T06:16:05.740Z,1.13
2022-10-10T06:18:32.296Z,5.18
2022-10-10T06:21:07.232Z,1.60
2022-10-10T06:23:34.651Z,1.08
2022-10-10T06:26:01.229Z,2.08
2022-10-10T06:28:27.905Z,2.92
2022-10-10T06:30:54.716Z,2.80
2022-10-10T06:33:21.416Z,1.50
2022-10-10T06:35:49.307Z,2.20
2022-10-10T06:38:17.100Z,2.08
2022-10-10T06:40:43.988Z,1.77
2022-10-10T06:43:12.603Z,1.95
2022-10-10T06:45:41.369Z,4.00
2022-10-10T06:48:08.644Z,1.30
2022-10-10T06:50:35.598Z,1.80
2022-10-10T06:53:02.306Z,1.38
2022-10-10T06:55:28.916Z,1.45
2022-10-10T06:57:55.735Z,2.05
2022-10-10T07:00:22.331Z,1.35
2022-10-10T07:02:49.120Z,1.90
2022-10-10T07:05:17.931Z,3.08
2022-10-10T07:07:45.574Z,2.10
2022-10-10T07:10:14.840Z,1.67
2022-10-10T07:12:44.762Z,1.27
2022-10-10T07:15:12.649Z,1.30
2022-10-10T07:17:39.556Z,2.60
2022-10-10T07:20:06.741Z,2.10
2022-10-10T07:22:33.781Z,2.78
2022-10-10T07:25:00.588Z,3.03
2022-10-10T07:27:27.596Z,3.50
2022-10-10T07:29:54.707Z,4.20
2022-10-10T07:32:21.568Z,4.85
2022-10-10T07:34:48.100Z,5.05
2022-10-10T07:37:14.799Z,8.13
2022-10-10T07:39:41.575Z,8.60
2022-10-10T07:42:08.152Z,8.90
2022-10-10T07:44:35.007Z,10.15
2022-10-10T07:47:02.052Z,11.55
2022-10-10T07:49:28.963Z,11.07
2022-10-10T07:51:58.925Z,13.43
2022-10-10T07:54:29.030Z,13.77
2022-10-10T07:56:56.025Z,14.13
2022-10-10T07:59:23.233Z,15.70
2022-10-10T08:01:50.842Z,17.05
2022-10-10T08:04:18.236Z,13.93
2022-10-10T08:06:44.832Z,15.88
2022-10-10T08:09:11.531Z,15.35
2022-10-10T08:11:38.111Z,14.90
2022-10-10T08:14:04.772Z,18.40
2022-10-10T08:16:31.687Z,15.95
2022-10-10T08:18:58.526Z,15.48
2022-10-10T08:21:25.445Z,14.73
2022-10-10T08:23:52.304Z,15.38
2022-10-10T08:26:20.126Z,14.55
2022-10-10T08:28:48.630Z,14.02
2022-10-10T08:31:19.236Z,16.70
2022-10-10T08:33:47.381Z,14.63
2022-10-10T08:36:16.827Z,14.40
2022-10-10T08:38:43.966Z,16.85
2022-10-10T08:41:34.446Z,15.68
2022-10-10T08:44:07.638Z,15.75
2022-10-10T08:46:44.587Z,15.20
2022-10-10T08:49:49.850Z,16.75
2022-10-10T08:52:43.410Z,15.05
2022-10-10T08:55:21.773Z,15.15
2022-10-10T08:57:50.570Z,15.30
2022-10-10T09:00:22.349Z,14.45
2022-10-10T09:02:54.540Z,15.07
2022-10-10T09:05:36.733Z,14.02
2022-10-10T09:08:27.158Z,15.35
2022-10-10T09:11:05.948Z,12.52
2022-10-10T09:14:08.078Z,14.63
2022-10-10T09:16:56.187Z,13.55
2022-10-10T09:19:33.484Z,16.70
2022-10-10T09:22:05.090Z,17.50
2022-10-10T09:24:41.113Z,16.45
2022-10-10T09:27:15.265Z,13.48
2022-10-10T09:29:50.348Z,13.25
2022-10-10T09:32:30.376Z,14.32
2022-10-10T09:35:14.354Z,15.35
2022-10-10T09:37:47.311Z,15.52
2022-10-10T09:40:42.581Z,16.42
2022-10-10T09:43:15.465Z,15.38
2022-10-10T09:45:52.506Z,14.38
2022-10-10T09:48:22.098Z,13.65
2022-10-10T09:50:48.630Z,13.95
2022-10-10T09:53:16.609Z,14.93
2022-10-10T09:55:46.403Z,14.63
2022-10-10T09:58:25.082Z,15.00
2022-10-10T10:00:53.758Z,14.67
2022-10-10T10:03:22.212Z,14.18
2022-10-10T10:06:01.836Z,13.77
2022-10-10T10:08:31.749Z,13.35
2022-10-10T10:10:59.769Z,12.38
2022-10-10T10:13:37.553Z,13.95
2022-10-10T10:16:13.538Z,12.68
2022-10-10T10:18:47.714Z,12.80
2022-10-10T10:21:21.127Z,12.25
2022-10-10T10:24:01.347Z,16.38
2022-10-10T10:26:46.154Z,12.38
2022-10-10T10:29:29.752Z,12.40
2022-10-10T10:32:15.023Z,12.10
2022-10-10T10:34:56.347Z,11.05
2022-10-10T10:37:43.597Z,10.43
2022-10-10T10:40:22.435Z,14.18
2022-10-10T10:43:03.839Z,12.98
2022-10-10T10:46:09.365Z,11.98
2022-10-10T10:49:01.072Z,12.23
2022-10-10T10:51:42.782Z,11.35
2022-10-10T10:54:31.387Z,11.40
2022-10-10T10:57:32.870Z,11.60
2022-10-10T11:01:22.619Z,11.13
2022-10-10T11:05:21.340Z,10.63
2022-10-10T11:06:59.804Z,11.75
2022-10-10T11:09:50.077Z,10.85
2022-10-10T11:12:29.226Z,11.00
2022-10-10T11:15:19.261Z,9.80
2022-10-10T11:17:59.699Z,8.18
2022-10-10T11:20:46.378Z,11.48
2022-10-10T11:23:38.816Z,10.23
2022-10-10T11:26:10.311Z,10.15
2022-10-10T11:28:49.132Z,9.90
2022-10-10T11:33:54.344Z,10.48
2022-10-10T11:36:26.171Z,8.93
2022-10-10T11:39:15.441Z,8.70
2022-10-10T11:41:53.982Z,9.77
2022-10-10T11:44:32.992Z,8.98
2022-10-10T11:47:09.379Z,9.80
2022-10-10T11:49:54.224Z,7.72
2022-10-10T11:52:56.398Z,9.20
2022-10-10T11:55:49.198Z,9.57
2022-10-10T11:58:40.627Z,10.50
2022-10-10T12:01:18.665Z,13.43
2022-10-10T12:03:45.525Z,12.70
2022-10-10T12:06:19.862Z,12.38
2022-10-10T12:09:15.919Z,14.27
2022-10-10T12:32:19.403Z,16.15
2022-10-10T12:34:48.649Z,18.02
2022-10-10T12:40:07.298Z,16.70
2022-10-10T12:43:01.586Z,21.65
2022-10-10T12:45:31.167Z,20.67
2022-10-10T12:48:07.135Z,19.98
2022-10-10T12:50:43.700Z,18.42
2022-10-10T12:53:13.210Z,20.63
2022-10-10T12:55:46.087Z,19.35
2022-10-10T12:58:30.179Z,22.30
2022-10-10T13:01:00.623Z,21.58
2022-10-10T13:03:39.901Z,19.30
2022-10-10T13:06:18.452Z,21.10
2022-10-10T13:08:45.576Z,23.17
2022-10-10T13:11:14.905Z,20.80
2022-10-10T13:13:50.866Z,21.45
2022-10-10T13:16:20.232Z,22.20
2022-10-10T13:21:22.296Z,23.38
2022-10-10T13:26:43.801Z,22.05
2022-10-10T13:29:44.637Z,21.95
2022-10-10T13:32:14.983Z,24.45
2022-10-10T13:34:46.465Z,20.08
2022-10-10T13:37:18.808Z,22.05
2022-10-10T13:39:45.837Z,25.92
2022-10-10T13:42:27.170Z,23.92
2022-10-10T13:44:55.919Z,18.85
2022-10-10T13:48:00.826Z,22.30
2022-10-10T13:50:30.225Z,28.92
2022-10-10T13:55:42.044Z,21.92
2022-10-10T13:58:10.471Z,22.30
2022-10-10T14:00:37.870Z,21.90
2022-10-10T14:03:18.415Z,20.42
2022-10-10T14:05:46.754Z,21.08
2022-10-10T14:08:18.740Z,19.15
2022-10-10T14:11:07.042Z,20.55
2022-10-10T14:13:37.299Z,19.30
2022-10-10T14:16:21.540Z,18.73
2022-10-10T14:18:48.125Z,20.20
2022-10-10T14:21:14.797Z,20.42
2022-10-10T14:23:41.456Z,19.02
2022-10-10T14:26:15.796Z,18.30
2022-10-10T14:28:42.569Z,17.77
2022-10-10T14:31:09.500Z,17.42
2022-10-10T14:33:36.398Z,17.40
2022-10-10T14:36:04.280Z,18.70
2022-10-10T14:38:31.190Z,18.88
2022-10-10T14:40:57.958Z,19.08
2022-10-10T14:43:24.739Z,19.90
2022-10-10T14:45:53.381Z,17.05
2022-10-10T14:48:20.527Z,18.55
2022-10-10T14:50:48.763Z,17.80
2022-10-10T14:53:15.708Z,17.85
2022-10-10T14:55:43.617Z,18.63
2022-10-10T14:58:15.192Z,18.65
2022-10-10T15:00:41.919Z,17.20
2022-10-10T15:03:08.745Z,16.35
2022-10-10T15:05:35.374Z,15.52
2022-10-10T15:08:01.946Z,16.55
2022-10-10T15:10:33.789Z,16.40
2022-10-10T15:13:01.676Z,13.93
2022-10-10T15:15:28.279Z,14.23
2022-10-10T15:17:57.189Z,15.40
2022-10-10T15:20:30.761Z,14.30
2022-10-10T15:22:59.702Z,13.63
2022-10-10T15:25:33.102Z,15.70
2022-10-10T15:28:01.468Z,12.60
2022-10-10T15:30:28.636Z,12.20
2022-10-10T15:32:55.257Z,14.15
2022-10-10T15:35:24.475Z,14.80
2022-10-10T15:37:51.137Z,12.32
2022-10-10T15:40:21.395Z,16.05
2022-10-10T15:42:49.049Z,14.85
2022-10-10T15:45:26.530Z,12.02
2022-10-10T15:48:02.211Z,14.15
2022-10-10T15:50:28.809Z,14.32
2022-10-10T15:52:55.359Z,15.98
2022-10-10T15:55:21.917Z,14.25
2022-10-10T15:57:48.480Z,12.85
2022-10-10T16:00:15.849Z,11.85
2022-10-10T16:02:42.554Z,12.25
2022-10-10T16:05:10.155Z,13.18
2022-10-10T16:07:46.665Z,12.05
2022-10-10T16:10:14.607Z,10.70
2022-10-10T16:12:41.434Z,11.30
2022-10-10T16:15:08.533Z,11.95
2022-10-10T16:17:35.205Z,13.13
2022-10-10T16:20:02.175Z,11.32
2022-10-10T16:22:28.821Z,10.85
2022-10-10T16:27:43.776Z,11.88
2022-10-10T16:30:11.387Z,10.55
2022-10-10T16:32:42.110Z,10.85
2022-10-10T16:35:10.629Z,10.75
2022-10-10T16:37:37.936Z,12.45
2022-10-10T16:40:05.613Z,12.20
2022-10-10T16:42:32.391Z,10.02
2022-10-10T16:44:59.190Z,10.75
2022-10-10T16:47:25.941Z,11.40
2022-10-10T16:49:52.691Z,13.30
2022-10-10T16:52:19.456Z,9.57
2022-10-10T16:54:49.956Z,10.57
2022-10-10T16:57:18.545Z,10.43
2022-10-10T16:59:45.253Z,9.77
2022-10-10T17:02:12.175Z,9.68
2022-10-10T17:04:38.820Z,10.30
2022-10-10T17:07:05.625Z,12.23
2022-10-10T17:09:32.454Z,9.18
2022-10-10T17:11:59.209Z,9.00
2022-10-10T17:14:25.881Z,9.05
2022-10-10T17:17:11.086Z,10.48
2022-10-10T17:19:38.206Z,9.30
2022-10-10T17:22:05.023Z,9.88
2022-10-10T17:24:31.788Z,12.35
2022-10-10T17:26:58.549Z,8.95
2022-10-10T17:29:25.416Z,9.93
2022-10-10T17:31:52.249Z,8.50
2022-10-10T17:34:19.349Z,9.55
2022-10-10T17:36:46.994Z,8.60
2022-10-10T17:39:13.937Z,10.77
2022-10-10T17:41:41.041Z,9.35
2022-10-10T17:44:10.813Z,9.77
2022-10-10T17:46:38.554Z,8.30
2022-10-10T17:49:08.475Z,7.10
2022-10-10T17:51:36.402Z,7.68
2022-10-10T17:54:04.426Z,9.32
2022-10-10T17:56:32.071Z,7.78
2022-10-10T17:59:02.425Z,6.75
2022-10-10T18:01:33.137Z,9.25
2022-10-10T18:04:00.582Z,6.38
2022-10-10T18:06:29.151Z,7.30
2022-10-10T18:08:56.445Z,5.97
2022-10-10T18:11:27.104Z,6.88
2022-10-10T18:13:56.371Z,7.63
2022-10-10T18:16:23.062Z,8.70
2022-10-10T18:18:51.905Z,7.22
2022-10-10T18:21:21.827Z,7.32
2022-10-10T18:23:49.092Z,8.45
2022-10-10T18:26:21.714Z,6.63
2022-10-10T18:28:49.859Z,7.32
2022-10-10T18:31:33.105Z,6.05
2022-10-10T18:34:00.745Z,6.85
2022-10-10T18:36:30.010Z,6.45
2022-10-10T18:41:33.786Z,7.45
2022-10-10T18:44:03.003Z,6.25
2022-10-10T18:46:30.413Z,6.63
2022-10-10T18:48:57.266Z,6.90
2022-10-10T18:51:26.474Z,8.05
2022-10-10T18:53:57.113Z,7.95
2022-10-10T18:56:26.778Z,7.60
2022-10-10T18:58:56.730Z,6.82
2022-10-10T19:01:25.690Z,6.60
2022-10-10T19:03:53.986Z,6.47
2022-10-10T19:06:22.672Z,7.10
2022-10-10T19:08:51.606Z,5.97
2022-10-10T19:11:21.761Z,6.80
2022-10-10T19:13:49.239Z,6.40
2022-10-10T19:16:16.385Z,6.70
2022-10-10T19:18:43.210Z,8.25
2022-10-10T19:21:10.347Z,6.57
2022-10-10T19:23:37.727Z,5.97
2022-10-10T19:26:06.956Z,7.47
2022-10-10T19:31:20.194Z,6.63
2022-10-10T19:33:52.325Z,7.20
2022-10-10T19:36:19.085Z,6.50
2022-10-10T19:38:46.432Z,7.00
2022-10-10T19:41:14.322Z,6.97
2022-10-10T19:43:46.674Z,6.90
2022-10-10T19:46:15.091Z,7.78
2022-10-10T19:48:42.061Z,6.03
2022-10-10T19:51:12.043Z,7.32
2022-10-10T19:53:57.615Z,5.55
2022-10-10T19:56:25.712Z,5.57
2022-10-10T19:58:54.953Z,6.82
2022-10-10T20:01:26.851Z,6.47
2022-10-10T20:03:56.256Z,6.28
2022-10-10T20:06:23.393Z,7.03
2022-10-10T20:08:50.390Z,7.90
2022-10-10T20:11:19.294Z,8.07
2022-10-10T20:13:46.567Z,10.38
2022-10-10T20:16:13.695Z,8.20
2022-10-10T20:18:42.307Z,8.90
2022-10-10T20:21:16.478Z,8.55
2022-10-10T20:23:47.111Z,7.97
2022-10-10T20:26:17.612Z,7.15
2022-10-10T20:28:45.898Z,7.90
2022-10-10T20:31:15.351Z,8.95
2022-10-10T20:36:09.800Z,7.25
2022-10-10T20:38:36.969Z,6.78
2022-10-10T20:41:06.953Z,7.78
2022-10-10T20:43:34.778Z,7.72
2022-10-10T20:46:09.897Z,6.63
2022-10-10T20:48:37.111Z,8.05
2022-10-10T20:51:11.779Z,8.32
2022-10-10T20:53:41.850Z,8.32
2022-10-10T20:56:11.009Z,6.47
2022-10-10T20:58:39.235Z,8.50
2022-10-10T21:01:14.890Z,9.40
2022-10-10T21:03:43.621Z,7.97
2022-10-10T21:06:11.891Z,8.38
2022-10-10T21:08:39.535Z,6.60
2022-10-10T21:11:08.875Z,8.10
2022-10-10T21:16:07.330Z,8.13
2022-10-10T21:18:34.333Z,8.40
2022-10-10T21:21:02.606Z,6.90
2022-10-10T21:23:32.851Z,7.30
2022-10-10T21:26:08.324Z,9.43
2022-10-10T21:28:35.977Z,6.88
2022-10-10T21:31:03.312Z,6.20
2022-10-10T21:33:30.767Z,6.78
2022-10-10T21:35:58.312Z,6.50
2022-10-10T21:38:25.574Z,8.15
2022-10-10T21:40:52.945Z,7.93
2022-10-10T21:43:19.799Z,8.25
2022-10-10T21:45:46.602Z,7.25
2022-10-10T21:48:13.508Z,8.20
2022-10-10T21:50:40.638Z,8.85
2022-10-10T21:53:08.371Z,6.18
2022-10-10T21:55:38.857Z,10.82
2022-10-10T21:58:05.640Z,9.23
2022-10-10T22:00:32.760Z,7.57
2022-10-10T22:02:59.364Z,7.18
2022-10-10T22:05:26.062Z,8.38
2022-10-10T22:07:52.810Z,7.10
2022-10-10T22:10:19.672Z,7.72
2022-10-10T22:12:46.717Z,5.13
2022-10-10T22:15:14.064Z,7.68
2022-10-10T22:17:41.184Z,6.13
2022-10-10T22:20:09.652Z,5.95
2022-10-10T22:22:41.798Z,4.30
2022-10-10T22:25:14.465Z,6.47
2022-10-10T22:27:41.897Z,7.25
2022-10-10T22:30:10.369Z,5.55
2022-10-10T22:32:37.123Z,7.80
2022-10-10T22:35:04.348Z,4.25
2022-10-10T22:37:30.969Z,5.15
2022-10-10T22:39:57.583Z,6.30
2022-10-10T22:42:24.259Z,6.53
2022-10-10T22:44:50.967Z,6.25
2022-10-10T22:47:17.665Z,6.85
2022-10-10T22:49:44.396Z,6.00
2022-10-10T22:52:11.358Z,5.28
2022-10-10T22:54:38.152Z,4.28
2022-10-10T22:57:04.909Z,5.35
2022-10-10T22:59:31.547Z,4.72
2022-10-10T23:01:58.049Z,3.85
2022-10-10T23:04:24.657Z,4.68
2022-10-10T23:06:51.482Z,6.10
2022-10-10T23:09:18.220Z,6.90
2022-10-10T23:11:44.766Z,4.63
2022-10-10T23:14:11.246Z,4.10
2022-10-10T23:16:40.708Z,4.65
2022-10-10T23:19:07.859Z,4.60
2022-10-10T23:21:34.709Z,5.75
2022-10-10T23:24:01.402Z,4.43
2022-10-10T23:26:28.043Z,3.60
2022-10-10T23:28:54.719Z,4.63
2022-10-10T23:31:21.406Z,4.22
2022-10-10T23:33:49.571Z,4.00
2022-10-10T23:36:16.416Z,4.00
2022-10-10T23:38:43.578Z,4.50
2022-10-10T23:41:11.770Z,4.15
2022-10-10T23:43:38.921Z,3.78
2022-10-10T23:46:06.303Z,3.50
2022-10-10T23:48:33.231Z,3.97
2022-10-10T23:51:00.017Z,4.32
2022-10-10T23:53:26.555Z,4.32
2022-10-10T23:55:53.214Z,3.72
2022-10-10T23:58:19.939Z,3.22
